createdAt,value
2018-11-20T00:01:50.256Z,66.04
2018-11-20T00:04:36.423Z,66.81
2018-11-20T00:07:22.898Z,66.85
2018-11-20T00:10:00.709Z,67.09
2018-11-20T00:12:46.841Z,67.44
2018-11-20T00:15:37.202Z,68.44
2018-11-20T00:18:22.499Z,68.77
2018-11-20T00:21:18.613Z,68.54
2018-11-20T00:24:05.672Z,68.47
2018-11-20T00:27:01.680Z,68.84
2018-11-20T00:29:48.597Z,69.32
2018-11-20T00:32:34.174Z,69.50
2018-11-20T00:35:24.994Z,68.53
2018-11-20T00:38:08.238Z,68.22
2018-11-20T00:40:59.753Z,68.35
2018-11-20T00:43:59.599Z,68.42
2018-11-20T00:46:59.320Z,68.09
2018-11-20T00:49:55.884Z,69.44
2018-11-20T00:52:54.519Z,68.98
2018-11-20T00:56:23.840Z,68.33
2018-11-20T00:59:14.635Z,68.82
2018-11-20T01:02:00.682Z,68.07
2018-11-20T01:04:46.942Z,67.71
2018-11-20T01:07:34.476Z,67.49
2018-11-20T01:10:20.739Z,67.44
2018-11-20T01:13:10.315Z,67.50
2018-11-20T01:16:07.498Z,67.59
2018-11-20T01:18:53.111Z,67.78
2018-11-20T01:21:39.332Z,68.08
2018-11-20T01:24:26.801Z,67.78
2018-11-20T01:27:13.033Z,67.91
2018-11-20T01:30:00.206Z,68.02
2018-11-20T01:32:59.478Z,68.54
2018-11-20T01:35:58.269Z,68.47
2018-11-20T01:39:04.172Z,68.43
2018-11-20T01:41:49.997Z,68.42
2018-11-20T01:44:35.635Z,68.54
2018-11-20T01:47:23.155Z,68.25
2018-11-20T01:50:08.952Z,68.02
2018-11-20T01:52:55.241Z,68.07
2018-11-20T01:56:02.478Z,68.09
2018-11-20T01:58:43.902Z,67.69
2018-11-20T02:01:30.358Z,67.79
2018-11-20T02:04:17.963Z,67.74
2018-11-20T02:07:05.871Z,67.79
2018-11-20T02:10:00.195Z,67.65
2018-11-20T02:12:45.859Z,67.75
2018-11-20T02:15:31.595Z,67.69
2018-11-20T02:18:24.047Z,67.68
2018-11-20T02:21:10.141Z,67.33
2018-11-20T02:23:56.381Z,67.64
2018-11-20T02:26:47.675Z,67.86
2018-11-20T02:29:33.261Z,67.94
2018-11-20T02:32:18.851Z,67.48
2018-11-20T02:35:20.926Z,67.37
2018-11-20T02:38:07.257Z,66.67
2018-11-20T02:40:43.579Z,65.90
2018-11-20T02:43:29.189Z,65.62
2018-11-20T02:46:15.931Z,65.18
2018-11-20T02:48:55.839Z,65.06
2018-11-20T02:51:57.905Z,65.34
2018-11-20T02:54:44.357Z,65.06
2018-11-20T02:57:32.017Z,64.90
2018-11-20T03:00:19.536Z,65.63
2018-11-20T03:03:06.079Z,66.42
2018-11-20T03:05:59.333Z,66.40
2018-11-20T03:08:37.030Z,66.59
2018-11-20T03:11:22.855Z,67.00
2018-11-20T03:14:25.479Z,66.88
2018-11-20T03:17:03.824Z,66.84
2018-11-20T03:20:06.886Z,66.89
2018-11-20T03:22:46.047Z,66.91
2018-11-20T03:26:07.042Z,67.29
2018-11-20T03:28:57.107Z,67.46
2018-11-20T03:31:50.359Z,67.48
2018-11-20T03:34:34.515Z,67.54
2018-11-20T03:37:24.592Z,67.70
2018-11-20T03:40:27.263Z,67.96
2018-11-20T03:43:03.399Z,67.45
2018-11-20T03:45:59.700Z,67.59
2018-11-20T03:48:46.327Z,67.58
2018-11-20T03:51:28.407Z,67.80
2018-11-20T03:54:16.548Z,67.76
2018-11-20T03:57:13.863Z,67.90
2018-11-20T04:00:13.280Z,67.40
2018-11-20T04:03:01.049Z,67.11
2018-11-20T04:05:47.113Z,66.73
2018-11-20T04:08:41.105Z,66.46
2018-11-20T04:11:28.586Z,66.26
2018-11-20T04:14:14.585Z,65.93
2018-11-20T04:17:10.863Z,66.00
2018-11-20T04:19:48.722Z,65.92
2018-11-20T04:22:51.497Z,66.06
2018-11-20T04:25:44.171Z,66.16
2018-11-20T04:28:32.762Z,65.99
2018-11-20T04:31:55.876Z,65.97
2018-11-20T04:34:37.017Z,66.04
2018-11-20T04:37:27.300Z,66.09
2018-11-20T04:40:14.873Z,65.83
2018-11-20T04:43:03.777Z,65.72
2018-11-20T04:45:39.501Z,65.99
2018-11-20T04:48:15.504Z,66.34
2018-11-20T04:50:56.531Z,66.00
2018-11-20T04:53:55.975Z,66.23
2018-11-20T04:56:53.230Z,66.22
2018-11-20T04:59:37.798Z,65.89
2018-11-20T05:02:23.950Z,65.94
2018-11-20T05:05:16.731Z,65.45
2018-11-20T05:08:02.778Z,65.53
2018-11-20T05:10:45.114Z,65.41
2018-11-20T05:13:31.488Z,64.91
2018-11-20T05:16:17.655Z,64.93
2018-11-20T05:19:13.144Z,64.99
2018-11-20T05:21:56.159Z,65.12
2018-11-20T05:24:52.674Z,65.21
2018-11-20T05:27:38.776Z,65.22
2018-11-20T05:30:29.529Z,64.94
2018-11-20T05:33:24.012Z,65.01
2018-11-20T05:36:10.100Z,65.22
2018-11-20T05:38:57.614Z,64.92
2018-11-20T05:41:56.853Z,64.26
2018-11-20T05:44:46.329Z,64.75
2018-11-20T05:47:33.152Z,64.72
2018-11-20T05:50:19.379Z,65.00
2018-11-20T05:53:12.860Z,64.84
2018-11-20T05:55:58.720Z,64.11
2018-11-20T05:58:44.831Z,63.82
2018-11-20T06:01:31.476Z,63.48
2018-11-20T06:04:17.620Z,63.59
2018-11-20T06:07:03.842Z,63.69
2018-11-20T06:09:50.053Z,62.96
2018-11-20T06:12:46.540Z,63.66
2018-11-20T06:15:40.047Z,63.25
2018-11-20T06:18:27.646Z,63.10
2018-11-20T06:21:09.839Z,63.04
2018-11-20T06:24:03.081Z,63.13
2018-11-20T06:26:48.509Z,63.04
2018-11-20T06:29:48.117Z,63.28
2018-11-20T06:32:26.944Z,64.11
2018-11-20T06:35:20.428Z,63.79
2018-11-20T06:37:58.228Z,63.93
2018-11-20T06:40:51.871Z,64.38
2018-11-20T06:43:51.368Z,63.65
2018-11-20T06:46:38.580Z,63.78
2018-11-20T06:49:26.072Z,63.69
2018-11-20T06:52:13.628Z,63.80
2018-11-20T06:55:03.608Z,62.85
2018-11-20T06:57:41.575Z,63.68
2018-11-20T07:00:37.947Z,62.94
2018-11-20T07:03:19.299Z,63.33
2018-11-20T07:06:09.959Z,63.75
2018-11-20T07:08:56.132Z,62.57
2018-11-20T07:11:42.197Z,63.26
2018-11-20T07:14:32.431Z,63.53
2018-11-20T07:17:23.433Z,63.25
2018-11-20T07:20:17.700Z,62.60
2018-11-20T07:23:03.672Z,61.58
2018-11-20T07:25:49.775Z,60.86
2018-11-20T07:28:42.663Z,60.61
2018-11-20T07:31:39.082Z,60.68
2018-11-20T07:34:35.593Z,60.44
2018-11-20T07:37:22.267Z,59.58
2018-11-20T07:40:24.063Z,59.85
2018-11-20T07:43:14.399Z,60.38
2018-11-20T07:46:00.696Z,59.86
2018-11-20T07:48:54.001Z,59.99
2018-11-20T07:51:54.016Z,59.64
2018-11-20T07:54:41.494Z,59.86
2018-11-20T07:57:32.227Z,59.75
2018-11-20T08:00:24.998Z,60.34
2018-11-20T08:03:11.355Z,60.45
2018-11-20T08:06:14.441Z,60.51
2018-11-20T08:09:13.828Z,60.88
2018-11-20T08:12:10.661Z,61.17
2018-11-20T08:14:58.457Z,60.86
2018-11-20T08:17:46.064Z,60.92
2018-11-20T08:20:36.004Z,60.89
2018-11-20T08:23:21.931Z,60.60
2018-11-20T08:25:59.832Z,60.79
2018-11-20T08:28:52.994Z,60.43
2018-11-20T08:31:40.552Z,60.73
2018-11-20T08:34:25.123Z,61.05
2018-11-20T08:37:02.130Z,60.56
2018-11-20T08:39:48.172Z,60.60
2018-11-20T08:42:43.437Z,60.76
2018-11-20T08:45:36.356Z,60.89
2018-11-20T08:48:41.739Z,60.35
2018-11-20T08:51:37.947Z,60.91
2018-11-20T08:54:35.032Z,60.30
2018-11-20T08:57:22.231Z,60.74
2018-11-20T09:00:08.408Z,61.46
2018-11-20T09:02:47.832Z,60.57
2018-11-20T09:05:25.654Z,60.45
2018-11-20T09:08:31.756Z,60.71
2018-11-20T09:11:28.591Z,60.98
2018-11-20T09:14:14.546Z,61.08
2018-11-20T09:17:01.043Z,61.21
2018-11-20T09:20:06.705Z,61.59
2018-11-20T09:22:53.502Z,61.18
2018-11-20T09:25:29.145Z,60.56
2018-11-20T09:28:17.268Z,59.21
2018-11-20T09:31:07.817Z,59.02
2018-11-20T09:34:07.092Z,58.92
2018-11-20T09:36:57.364Z,58.71
2018-11-20T09:40:01.413Z,58.92
2018-11-20T09:42:38.792Z,58.46
2018-11-20T09:45:42.807Z,58.57
2018-11-20T09:48:47.645Z,58.89
2018-11-20T09:51:46.967Z,58.73
2018-11-20T09:54:41.014Z,59.06
2018-11-20T09:57:25.289Z,59.48
2018-11-20T10:00:18.780Z,59.69
2018-11-20T10:03:06.035Z,60.61
2018-11-20T10:06:05.752Z,61.35
2018-11-20T10:08:53.064Z,60.70
2018-11-20T10:11:40.183Z,61.69
2018-11-20T10:14:27.421Z,61.98
2018-11-20T10:17:13.189Z,62.74
2018-11-20T10:20:00.392Z,62.78
2018-11-20T10:22:50.782Z,63.02
2018-11-20T10:25:50.613Z,62.24
2018-11-20T10:28:40.840Z,63.04
2018-11-20T10:31:26.769Z,63.65
2018-11-20T10:34:15.065Z,63.38
2018-11-20T10:36:57.857Z,63.14
2018-11-20T10:39:43.963Z,64.30
2018-11-20T10:42:31.466Z,63.57
2018-11-20T10:45:25.012Z,63.47
2018-11-20T10:48:08.597Z,62.85
2018-11-20T10:50:54.774Z,62.67
2018-11-20T10:53:41.806Z,62.50
2018-11-20T10:56:29.516Z,63.00
2018-11-20T10:59:15.718Z,63.42
2018-11-20T11:02:18.327Z,63.08
2018-11-20T11:05:04.868Z,63.18
2018-11-20T11:07:51.600Z,62.68
2018-11-20T11:10:45.831Z,62.93
2018-11-20T11:13:48.251Z,63.44
2018-11-20T11:16:41.930Z,62.54
2018-11-20T11:19:27.943Z,62.84
2018-11-20T11:22:06.133Z,62.91
2018-11-20T11:24:55.982Z,62.74
2018-11-20T11:27:42.260Z,62.03
2018-11-20T11:30:28.297Z,62.75
2018-11-20T11:33:26.810Z,63.29
2018-11-20T11:36:09.591Z,63.43
2018-11-20T11:39:09.442Z,63.13
2018-11-20T11:41:49.301Z,63.68
2018-11-20T11:44:42.351Z,63.66
2018-11-20T11:47:30.407Z,63.64
2018-11-20T11:50:26.829Z,63.60
2018-11-20T11:53:12.541Z,63.27
2018-11-20T11:56:18.241Z,64.22
2018-11-20T11:59:09.203Z,64.04
2018-11-20T12:04:35.049Z,64.29
2018-11-20T12:07:25.521Z,64.57
2018-11-20T12:10:11.616Z,65.19
2018-11-20T12:12:58.808Z,64.84
2018-11-20T12:15:49.581Z,65.11
2018-11-20T12:18:42.827Z,65.27
2018-11-20T12:21:20.580Z,65.57
2018-11-20T12:24:06.272Z,65.61
2018-11-20T12:26:53.837Z,65.56
2018-11-20T12:29:46.911Z,66.05
2018-11-20T12:32:47.142Z,66.16
2018-11-20T12:35:33.423Z,66.24
2018-11-20T12:38:08.025Z,65.46
2018-11-20T12:40:45.524Z,66.15
2018-11-20T12:43:38.023Z,66.09
2018-11-20T12:46:38.865Z,65.93
2018-11-20T12:49:26.209Z,66.28
2018-11-20T12:52:23.998Z,66.46
2018-11-20T12:55:08.300Z,66.15
2018-11-20T12:57:59.154Z,66.24
2018-11-20T13:00:39.558Z,66.08
2018-11-20T13:03:41.958Z,65.93
2018-11-20T13:06:28.760Z,65.38
2018-11-20T13:09:17.839Z,65.98
2018-11-20T13:12:11.410Z,65.85
2018-11-20T13:14:57.812Z,65.84
2018-11-20T13:17:52.211Z,65.59
2018-11-20T13:20:50.607Z,65.94
2018-11-20T13:23:42.653Z,65.96
2018-11-20T13:26:21.469Z,65.63
2018-11-20T13:29:05.974Z,65.31
2018-11-20T13:31:52.462Z,65.90
2018-11-20T13:34:40.089Z,65.74
2018-11-20T13:37:32.004Z,65.91
2018-11-20T13:40:30.466Z,65.26
2018-11-20T13:43:18.796Z,65.34
2018-11-20T13:46:04.963Z,65.50
2018-11-20T13:48:51.965Z,65.33
2018-11-20T13:51:42.082Z,65.25
2018-11-20T13:54:43.630Z,65.31
2018-11-20T13:57:36.846Z,65.42
2018-11-20T14:00:39.134Z,65.17
2018-11-20T14:03:19.234Z,65.40
2018-11-20T14:06:02.649Z,65.45
2018-11-20T14:08:49.846Z,65.35
2018-11-20T14:11:26.631Z,65.46
2018-11-20T14:14:37.116Z,65.08
2018-11-20T14:17:46.568Z,65.86
2018-11-20T14:20:41.826Z,65.78
2018-11-20T14:23:41.603Z,65.88
2018-11-20T14:26:30.632Z,65.98
2018-11-20T14:29:17.857Z,65.71
2018-11-20T14:31:55.766Z,65.87
2018-11-20T14:34:42.089Z,65.77
2018-11-20T14:37:32.784Z,65.75
2018-11-20T14:40:29.027Z,66.06
2018-11-20T14:43:14.997Z,65.89
2018-11-20T14:45:58.625Z,66.01
2018-11-20T14:48:44.778Z,65.42
2018-11-20T14:51:31.009Z,66.04
2018-11-20T14:54:17.945Z,64.98
2018-11-20T14:57:05.169Z,64.17
2018-11-20T15:00:04.331Z,63.61
2018-11-20T15:02:50.433Z,63.36
2018-11-20T15:05:37.615Z,63.26
2018-11-20T15:08:31.150Z,63.31
2018-11-20T15:11:38.419Z,62.66
2018-11-20T15:14:28.173Z,62.96
2018-11-20T15:17:21.937Z,62.61
2018-11-20T15:20:08.436Z,63.13
2018-11-20T15:22:54.495Z,62.99
2018-11-20T15:25:40.569Z,63.34
2018-11-20T15:28:24.608Z,64.14
2018-11-20T15:31:13.097Z,63.89
2018-11-20T15:34:09.809Z,63.60
2018-11-20T15:36:46.708Z,63.97
2018-11-20T15:39:43.298Z,63.74
2018-11-20T15:42:33.546Z,64.33
2018-11-20T15:45:27.150Z,64.74
2018-11-20T15:48:16.746Z,64.76
2018-11-20T15:50:55.698Z,65.22
2018-11-20T15:53:42.235Z,65.20
2018-11-20T15:56:19.689Z,65.43
2018-11-20T15:59:06.239Z,65.89
2018-11-20T16:01:52.231Z,66.06
2018-11-20T16:04:49.535Z,65.77
2018-11-20T16:07:31.233Z,66.69
2018-11-20T16:10:17.309Z,67.07
2018-11-20T16:13:00.826Z,67.20
2018-11-20T16:15:47.542Z,67.24
2018-11-20T16:18:40.360Z,67.76
2018-11-20T16:21:40.448Z,68.19
2018-11-20T16:24:26.079Z,68.52
2018-11-20T16:27:13.835Z,68.05
2018-11-20T16:30:04.161Z,68.53
2018-11-20T16:32:49.938Z,68.71
2018-11-20T16:35:39.194Z,68.85
2018-11-20T16:38:26.393Z,68.98
2018-11-20T16:41:19.646Z,68.71
2018-11-20T16:44:06.077Z,68.80
2018-11-20T16:46:53.877Z,68.74
2018-11-20T16:49:47.339Z,69.14
2018-11-20T16:52:33.561Z,67.73
2018-11-20T16:55:19.691Z,67.62
2018-11-20T16:58:07.900Z,67.60
2018-11-20T17:00:50.702Z,67.75
2018-11-20T17:03:42.881Z,69.12
2018-11-20T17:06:30.211Z,67.54
2018-11-20T17:09:19.358Z,67.19
2018-11-20T17:12:12.851Z,67.38
2018-11-20T17:15:18.580Z,67.48
2018-11-20T17:18:06.270Z,67.19
2018-11-20T17:20:52.229Z,67.12
2018-11-20T17:23:42.286Z,66.76
2018-11-20T17:26:24.394Z,65.47
2018-11-20T17:29:49.271Z,65.08
2018-11-20T17:32:42.389Z,65.25
2018-11-20T17:35:32.257Z,65.02
2018-11-20T17:38:18.199Z,64.92
2018-11-20T17:41:11.507Z,64.81
2018-11-20T17:43:58.349Z,65.01
2018-11-20T17:46:47.518Z,64.47
2018-11-20T17:49:33.981Z,64.84
2018-11-20T17:52:23.574Z,64.39
2018-11-20T17:55:10.626Z,63.92
2018-11-20T17:57:57.175Z,64.05
2018-11-20T18:00:40.758Z,64.09
2018-11-20T18:03:22.968Z,64.35
2018-11-20T18:06:08.086Z,64.53
2018-11-20T18:09:13.275Z,65.35
2018-11-20T18:12:10.454Z,65.15
2018-11-20T18:14:58.408Z,65.60
2018-11-20T18:17:44.613Z,65.48
2018-11-20T18:20:37.560Z,65.85
2018-11-20T18:23:23.497Z,65.88
2018-11-20T18:26:10.475Z,66.47
2018-11-20T18:28:52.859Z,66.19
2018-11-20T18:31:52.172Z,67.03
2018-11-20T18:34:44.121Z,66.38
2018-11-20T18:37:29.696Z,66.46
2018-11-20T18:40:19.462Z,66.10
2018-11-20T18:43:12.091Z,66.89
2018-11-20T18:45:57.836Z,66.48
2018-11-20T18:48:50.539Z,66.08
2018-11-20T18:51:37.319Z,66.48
2018-11-20T18:54:23.319Z,65.62
2018-11-20T18:57:01.177Z,65.92
2018-11-20T18:59:47.427Z,65.80
2018-11-20T19:02:32.706Z,66.01
2018-11-20T19:05:13.924Z,65.89
2018-11-20T19:08:06.102Z,65.66
2018-11-20T19:10:51.406Z,66.11
2018-11-20T19:13:41.337Z,66.12
2018-11-20T19:16:28.972Z,66.18
2018-11-20T19:19:24.673Z,65.87
2018-11-20T19:22:26.903Z,66.26
2018-11-20T19:25:21.494Z,66.64
2018-11-20T19:28:17.001Z,66.97
2018-11-20T19:31:11.170Z,66.84
2018-11-20T19:34:16.113Z,66.80
2018-11-20T19:37:02.106Z,66.71
2018-11-20T19:39:56.427Z,66.72
2018-11-20T19:43:01.227Z,66.55
2018-11-20T19:45:46.662Z,66.54
2018-11-20T19:48:31.404Z,66.90
2018-11-20T19:51:16.655Z,66.63
2018-11-20T19:54:01.717Z,66.40
2018-11-20T19:57:06.800Z,66.44
2018-11-20T20:03:52.313Z,66.74
2018-11-20T20:06:37.308Z,66.85
2018-11-20T20:09:26.003Z,66.48
2018-11-20T20:12:23.629Z,66.25
2018-11-20T20:15:05.042Z,66.30
2018-11-20T20:18:04.214Z,66.52
2018-11-20T20:20:49.708Z,66.73
2018-11-20T20:23:51.268Z,66.28
2018-11-20T20:26:32.142Z,66.49
2018-11-20T20:29:17.258Z,66.62
2018-11-20T20:32:16.123Z,66.40
2018-11-20T20:35:01.866Z,66.90
2018-11-20T20:37:43.513Z,66.99
2018-11-20T20:40:23.585Z,67.16
2018-11-20T20:43:20.123Z,67.02
2018-11-20T20:46:06.698Z,66.80
2018-11-20T20:49:11.284Z,67.51
2018-11-20T20:51:56.109Z,67.74
2018-11-20T20:54:48.434Z,67.77
2018-11-20T20:57:34.855Z,68.11
2018-11-20T21:00:39.708Z,68.06
2018-11-20T21:03:17.586Z,67.92
2018-11-20T21:06:03.249Z,68.34
2018-11-20T21:08:52.880Z,68.22
2018-11-20T21:11:39.512Z,68.14
2018-11-20T21:14:25.574Z,68.46
2018-11-20T21:17:11.596Z,68.30
2018-11-20T21:20:13.193Z,68.72
2018-11-20T21:22:56.431Z,68.35
2018-11-20T21:25:49.143Z,68.63
2018-11-20T21:28:38.394Z,68.86
2018-11-20T21:31:30.994Z,69.18
2018-11-20T21:34:12.502Z,69.29
2018-11-20T21:37:11.453Z,69.43
2018-11-20T21:40:04.552Z,69.13
2018-11-20T21:43:09.892Z,69.21
2018-11-20T21:46:07.123Z,69.58
2018-11-20T21:48:56.515Z,69.44
2018-11-20T21:51:43.304Z,69.66
2018-11-20T21:54:29.769Z,69.60
2018-11-20T21:57:16.316Z,70.60
2018-11-20T22:00:02.214Z,70.13
2018-11-20T22:02:50.762Z,70.51
2018-11-20T22:05:36.399Z,70.13
2018-11-20T22:08:41.717Z,69.95
2018-11-20T22:11:34.524Z,70.47
2018-11-20T22:14:31.140Z,70.26
2018-11-20T22:17:20.508Z,70.60
2018-11-20T22:20:07.601Z,70.49
2018-11-20T22:22:53.227Z,70.57
2018-11-20T22:25:45.553Z,70.54
2018-11-20T22:28:32.644Z,71.01
2018-11-20T22:31:21.887Z,70.75
2018-11-20T22:34:07.550Z,70.60
2018-11-20T22:36:53.226Z,70.40
2018-11-20T22:39:55.245Z,71.19
2018-11-20T22:42:46.689Z,70.80
2018-11-20T22:45:27.291Z,71.24
2018-11-20T22:48:12.142Z,70.69
2018-11-20T22:50:57.407Z,70.76
2018-11-20T22:53:43.022Z,70.62
2018-11-20T22:56:26.337Z,70.94
2018-11-20T22:59:18.570Z,71.13
2018-11-20T23:02:07.935Z,71.21
2018-11-20T23:04:59.718Z,71.38
2018-11-20T23:07:44.653Z,71.04
2018-11-20T23:10:13.384Z,70.79
2018-11-20T23:12:40.519Z,71.04
2018-11-20T23:15:10.886Z,70.98
2018-11-20T23:17:37.924Z,71.06
2018-11-20T23:20:05.521Z,71.89
2018-11-20T23:22:34.031Z,71.35
2018-11-20T23:25:01.192Z,71.87
2018-11-20T23:27:28.967Z,71.60
2018-11-20T23:29:55.839Z,71.64
2018-11-20T23:32:22.849Z,71.57
2018-11-20T23:34:50.055Z,71.76
2018-11-20T23:37:17.397Z,71.59
2018-11-20T23:39:45.000Z,72.04
2018-11-20T23:42:12.561Z,71.84
2018-11-20T23:44:39.420Z,71.59
2018-11-20T23:47:07.765Z,72.12
2018-11-20T23:49:34.887Z,71.63
2018-11-20T23:52:01.934Z,71.64
2018-11-20T23:54:29.341Z,72.39
2018-11-20T23:56:56.209Z,71.87
2018-11-20T23:59:23.759Z,72.04
